Aeroporto :







RITROVATECI SU...

 
LOGIN :

Iscrizione | Disclaimer

   EN    FR    IT 

 









Sommario :    VFR   VFR Marginale   IFR   IFR Intensivo   IFR Molto Intensivo
Visibilità : 
Base nubi : 
>= 8 km
>= 3000ft
5 / 8 km
1000 / 3000 ft
1500m / 5 km
500 / 1000 ft
800 / 1500m
200 / 500 ft
< 800m
< 200 ft
Simboli :   Temporali  Nebbia  Neve Forte  Precipitazioni Forti  Vento > 20 kt






- Altitudine del aeroporto : 72 ft
- Codice IATA : YDF


CYDF - Deer Lake

ULTIMO METAR :
  • 052300Z 03006KT 15SM FEW048 BKN095 BKN220 18/10 A3008 RMK SC2AC3CI1 SLP188 DENSITY ALT 300FT

METARs OBSOLETI :
  • 052200Z 03008KT 15SM SCT050 BKN096 19/11 A3006 RMK CU3AC4 SLP183 DENSITY ALT 400FT
  • 052100Z 03010KT 360V060 15SM SCT050 BKN095 20/10 A3005 RMK CU3AC4 SLP178 DENSITY ALT 500FT
  • 052000Z 04004KT 320V100 15SM SCT050 BKN094 BKN220 21/10 A3005 RMK CU4AC2CI1 SLP177 DENSITY ALT 700FT

TAF TAF CYDF
Valido dal 05 a 20 ore il 06 a 00 ore UTC


051938Z 0520/0524 VRB03KT P6SM SCT040
TEMPO 0520/0524 BKN040
BECMG 0520/0522 07008KT RMK NXT FCST WILL BE ISSUED AT 061045Z
FIR CZQX / America del Nord



MetMap, La meteo Aeronautica in un colpo d'occhio ! - Copyright ORBIFLY Dicembre 2007 - Disclaimer

ORBIFLY MET'MAP TEAM :

Programmazione e sviluppo : Alexandra Zaïnal
Concezione : Baudouin d'Aumeries
Aiuto per la programmazione : Marc-Olivier Méhu
Supporto tecnico e logistico : Manuel Goepfert
Aiuto per la traduzione : Arnaldo La Scala

Contatto : metmap@orbifly.com




FONTI E CREDITI :

   NOAA